sensor_id;sensor_type;location;lat;lon;timestamp;pressure;altitude;pressure_sealevel;temperature;humidity
2000;BME280;1001;48.87406500;9.59633600;2023-03-13T00:01:13;94635.13;;;8.55;90.91
2000;BME280;1001;48.87406500;9.59633600;2023-03-13T00:03:42;94636.72;;;8.56;90.74
2000;BME280;1001;48.87406500;9.59633600;2023-03-13T00:06:08;94625.13;;;8.52;90.38
2000;BME280;1001;48.87406500;9.59633600;2023-03-13T00:08:35;94624.00;;;8.60;90.45
2000;BME280;1001;48.87406500;9.59633600;2023-03-13T00:11:03;94631.59;;;8.61;89.97
2000;BME280;1001;48.87406500;9.59633600;2023-03-13T00:13:30;94632.50;;;8.55;89.92
2000;BME280;1001;48.87406500;9.59633600;2023-03-13T00:16:00;94631.16;;;8.53;89.62
2000;BME280;1001;48.87406500;9.59633600;2023-03-13T00:18:26;94629.66;;;8.57;89.82
2000;BME280;1001;48.87406500;9.59633600;2023-03-13T00:20:58;94635.34;;;8.54;89.39
2000;BME280;1001;48.87406500;9.59633600;2023-03-13T00:23:25;94636.72;;;8.56;89.45
2000;BME280;1001;48.87406500;9.59633600;2023-03-13T00:25:55;94637.28;;;8.58;89.37
2000;BME280;1001;48.87406500;9.59633600;2023-03-13T00:28:22;94642.13;;;8.66;88.77
2000;BME280;1001;48.87406500;9.59633600;2023-03-13T00:30:49;94631.69;;;8.66;88.82
2000;BME280;1001;48.87406500;9.59633600;2023-03-13T00:33:15;94634.22;;;8.73;88.94
2000;BME280;1001;48.87406500;9.59633600;2023-03-13T00:35:42;94627.72;;;8.64;88.87
2000;BME280;1001;48.87406500;9.59633600;2023-03-13T00:38:10;94632.75;;;8.65;89.19
2000;BME280;1001;48.87406500;9.59633600;2023-03-13T00:40:36;94627.84;;;8.69;88.60
2000;BME280;1001;48.87406500;9.59633600;2023-03-13T00:43:03;94625.34;;;8.74;88.35
2000;BME280;1001;48.87406500;9.59633600;2023-03-13T00:45:29;94618.91;;;8.76;88.14
2000;BME280;1001;48.87406500;9.59633600;2023-03-13T00:47:56;94612.66;;;8.77;87.70
2000;BME280;1001;48.87406500;9.59633600;2023-03-13T00:50:23;94611.28;;;8.86;87.47
2000;BME280;1001;48.87406500;9.59633600;2023-03-13T00:52:49;94618.75;;;8.83;87.47
2000;BME280;1001;48.87406500;9.59633600;2023-03-13T00:55:17;94610.38;;;8.81;87.33
2000;BME280;1001;48.87406500;9.59633600;2023-03-13T00:57:44;94608.69;;;8.86;87.33
2000;BME280;1001;48.87406500;9.59633600;2023-03-13T01:00:11;94607.53;;;8.94;86.74
2000;BME280;1001;48.87406500;9.59633600;2023-03-13T01:02:41;94606.38;;;9.02;86.60
2000;BME280;1001;48.87406500;9.59633600;2023-03-13T01:05:09;94597.28;;;9.04;86.23
2000;BME280;1001;48.87406500;9.59633600;2023-03-13T01:07:35;94591.72;;;9.12;86.05
2000;BME280;1001;48.87406500;9.59633600;2023-03-13T01:10:02;94587.50;;;9.11;85.67
2000;BME280;1001;48.87406500;9.59633600;2023-03-13T01:12:30;94588.56;;;9.10;85.93
2000;BME280;1001;48.87406500;9.59633600;2023-03-13T01:14:57;94579.00;;;9.16;85.96
2000;BME280;1001;48.87406500;9.59633600;2023-03-13T01:17:23;94573.22;;;9.14;85.35
2000;BME280;1001;48.87406500;9.59633600;2023-03-13T01:19:50;94567.78;;;9.15;85.19
2000;BME280;1001;48.87406500;9.59633600;2023-03-13T01:22:16;94567.44;;;9.12;85.79
2000;BME280;1001;48.87406500;9.59633600;2023-03-13T01:24:43;94561.22;;;9.13;85.27
2000;BME280;1001;48.87406500;9.59633600;2023-03-13T01:27:10;94552.44;;;9.19;84.95
2000;BME280;1001;48.87406500;9.59633600;2023-03-13T01:29:38;94544.44;;;9.09;84.87
2000;BME280;1001;48.87406500;9.59633600;2023-03-13T01:32:05;94555.44;;;9.11;84.63
2000;BME280;1001;48.87406500;9.59633600;2023-03-13T01:34:32;94540.81;;;9.10;84.54
2000;BME280;1001;48.87406500;9.59633600;2023-03-13T01:36:58;94536.41;;;9.10;85.03
2000;BME280;1001;48.87406500;9.59633600;2023-03-13T01:39:25;94534.59;;;9.11;84.31
2000;BME280;1001;48.87406500;9.59633600;2023-03-13T01:41:51;94534.69;;;9.04;84.76
2000;BME280;1001;48.87406500;9.59633600;2023-03-13T01:44:21;94526.97;;;9.09;83.87
2000;BME280;1001;48.87406500;9.59633600;2023-03-13T01:46:49;94525.31;;;9.03;84.39
2000;BME280;1001;48.87406500;9.59633600;2023-03-13T01:49:19;94522.16;;;9.01;84.53
2000;BME280;1001;48.87406500;9.59633600;2023-03-13T01:51:48;94514.44;;;8.95;84.85
2000;BME280;1001;48.87406500;9.59633600;2023-03-13T01:54:20;94522.25;;;8.95;84.41
2000;BME280;1001;48.87406500;9.59633600;2023-03-13T01:56:50;94507.88;;;8.92;84.62
2000;BME280;1001;48.87406500;9.59633600;2023-03-13T01:59:21;94509.16;;;8.89;84.67
2000;BME280;1001;48.87406500;9.59633600;2023-03-13T02:01:52;94500.19;;;8.85;85.54
2000;BME280;1001;48.87406500;9.59633600;2023-03-13T02:04:22;94496.78;;;8.85;85.25
2000;BME280;1001;48.87406500;9.59633600;2023-03-13T02:06:52;94490.13;;;8.89;85.19
2000;BME280;1001;48.87406500;9.59633600;2023-03-13T02:09:24;94498.25;;;8.93;85.08
2000;BME280;1001;48.87406500;9.59633600;2023-03-13T02:11:55;94488.31;;;8.89;84.65
2000;BME280;1001;48.87406500;9.59633600;2023-03-13T02:14:25;94481.41;;;8.83;84.80
2000;BME280;1001;48.87406500;9.59633600;2023-03-13T02:16:54;94485.91;;;8.88;84.79
2000;BME280;1001;48.87406500;9.59633600;2023-03-13T02:19:27;94485.59;;;8.84;85.35
2000;BME280;1001;48.87406500;9.59633600;2023-03-13T02:22:03;94479.91;;;8.87;85.37
2000;BME280;1001;48.87406500;9.59633600;2023-03-13T02:24:37;94482.84;;;8.91;85.41
2000;BME280;1001;48.87406500;9.59633600;2023-03-13T02:27:08;94476.78;;;9.02;85.19
2000;BME280;1001;48.87406500;9.59633600;2023-03-13T02:29:34;94467.16;;;9.03;84.52
2000;BME280;1001;48.87406500;9.59633600;2023-03-13T02:32:01;94466.19;;;9.09;84.28
2000;BME280;1001;48.87406500;9.59633600;2023-03-13T02:34:31;94474.81;;;9.09;84.54
2000;BME280;1001;48.87406500;9.59633600;2023-03-13T02:37:00;94466.53;;;9.12;84.70
2000;BME280;1001;48.87406500;9.59633600;2023-03-13T02:39:30;94461.97;;;9.19;83.88
2000;BME280;1001;48.87406500;9.59633600;2023-03-13T02:41:58;94457.59;;;9.08;84.27
2000;BME280;1001;48.87406500;9.59633600;2023-03-13T02:44:28;94455.94;;;9.19;83.96
2000;BME280;1001;48.87406500;9.59633600;2023-03-13T02:46:55;94464.16;;;9.11;84.29
2000;BME280;1001;48.87406500;9.59633600;2023-03-13T02:49:23;94454.38;;;9.18;83.95
2000;BME280;1001;48.87406500;9.59633600;2023-03-13T02:51:51;94455.03;;;9.25;84.11
2000;BME280;1001;48.87406500;9.59633600;2023-03-13T02:54:20;94449.56;;;9.26;83.25
2000;BME280;1001;48.87406500;9.59633600;2023-03-13T02:56:51;94446.22;;;9.31;84.17
2000;BME280;1001;48.87406500;9.59633600;2023-03-13T02:59:19;94444.09;;;9.28;83.81
2000;BME280;1001;48.87406500;9.59633600;2023-03-13T03:01:47;94438.75;;;9.34;83.73
2000;BME280;1001;48.87406500;9.59633600;2023-03-13T03:04:17;94430.66;;;9.36;84.26
2000;BME280;1001;48.87406500;9.59633600;2023-03-13T03:06:44;94417.53;;;9.31;84.91
2000;BME280;1001;48.87406500;9.59633600;2023-03-13T03:09:10;94415.09;;;9.24;85.40
2000;BME280;1001;48.87406500;9.59633600;2023-03-13T03:11:37;94405.75;;;9.28;85.10
2000;BME280;1001;48.87406500;9.59633600;2023-03-13T03:14:04;94392.25;;;9.31;86.18
2000;BME280;1001;48.87406500;9.59633600;2023-03-13T03:16:31;94402.94;;;9.30;87.24
2000;BME280;1001;48.87406500;9.59633600;2023-03-13T03:18:59;94391.44;;;9.31;88.10
2000;BME280;1001;48.87406500;9.59633600;2023-03-13T03:21:25;94382.81;;;9.30;89.31
2000;BME280;1001;48.87406500;9.59633600;2023-03-13T03:23:52;94386.88;;;9.21;89.42
2000;BME280;1001;48.87406500;9.59633600;2023-03-13T03:26:18;94374.53;;;9.00;90.42
2000;BME280;1001;48.87406500;9.59633600;2023-03-13T03:28:45;94371.63;;;8.97;90.86
2000;BME280;1001;48.87406500;9.59633600;2023-03-13T03:31:18;94373.59;;;8.89;91.65
2000;BME280;1001;48.87406500;9.59633600;2023-03-13T03:33:45;94368.94;;;8.92;91.50
2000;BME280;1001;48.87406500;9.59633600;2023-03-13T03:36:15;94370.66;;;9.03;92.23
2000;BME280;1001;48.87406500;9.59633600;2023-03-13T03:38:43;94372.31;;;9.09;91.75
2000;BME280;1001;48.87406500;9.59633600;2023-03-13T03:41:11;94363.22;;;9.11;91.42
2000;BME280;1001;48.87406500;9.59633600;2023-03-13T03:43:38;94363.09;;;9.18;91.45
2000;BME280;1001;48.87406500;9.59633600;2023-03-13T03:46:05;94377.22;;;9.22;92.91
2000;BME280;1001;48.87406500;9.59633600;2023-03-13T03:48:32;94371.13;;;9.16;93.58
2000;BME280;1001;48.87406500;9.59633600;2023-03-13T03:50:59;94360.63;;;9.11;94.93
2000;BME280;1001;48.87406500;9.59633600;2023-03-13T03:53:27;94364.75;;;9.07;95.74
2000;BME280;1001;48.87406500;9.59633600;2023-03-13T03:55:53;94363.84;;;9.02;97.12
2000;BME280;1001;48.87406500;9.59633600;2023-03-13T03:58:20;94365.53;;;8.91;98.13
2000;BME280;1001;48.87406500;9.59633600;2023-03-13T04:00:47;94366.06;;;8.93;98.87
2000;BME280;1001;48.87406500;9.59633600;2023-03-13T04:03:14;94356.34;;;8.88;99.71
2000;BME280;1001;48.87406500;9.59633600;2023-03-13T04:05:41;94359.69;;;8.84;100.00
2000;BME280;1001;48.87406500;9.59633600;2023-03-13T04:08:09;94365.19;;;8.87;100.00
2000;BME280;1001;48.87406500;9.59633600;2023-03-13T04:10:37;94360.84;;;8.93;100.00
2000;BME280;1001;48.87406500;9.59633600;2023-03-13T04:13:03;94366.97;;;8.99;100.00
2000;BME280;1001;48.87406500;9.59633600;2023-03-13T04:15:30;94359.13;;;8.99;100.00
2000;BME280;1001;48.87406500;9.59633600;2023-03-13T04:17:57;94366.16;;;8.98;100.00
2000;BME280;1001;48.87406500;9.59633600;2023-03-13T04:20:23;94358.19;;;9.05;100.00
2000;BME280;1001;48.87406500;9.59633600;2023-03-13T04:22:50;94354.22;;;9.02;99.90
2000;BME280;1001;48.87406500;9.59633600;2023-03-13T04:25:17;94344.13;;;9.06;99.77
2000;BME280;1001;48.87406500;9.59633600;2023-03-13T04:27:44;94340.47;;;9.07;99.71
2000;BME280;1001;48.87406500;9.59633600;2023-03-13T04:30:12;94341.03;;;9.09;99.56
2000;BME280;1001;48.87406500;9.59633600;2023-03-13T04:32:38;94325.78;;;9.01;99.95
2000;BME280;1001;48.87406500;9.59633600;2023-03-13T04:35:05;94333.16;;;9.04;100.00
2000;BME280;1001;48.87406500;9.59633600;2023-03-13T04:37:32;94326.97;;;9.10;100.00
2000;BME280;1001;48.87406500;9.59633600;2023-03-13T04:39:58;94312.97;;;9.16;99.75
2000;BME280;1001;48.87406500;9.59633600;2023-03-13T04:42:25;94316.16;;;9.18;99.67
2000;BME280;1001;48.87406500;9.59633600;2023-03-13T04:44:53;94307.66;;;9.27;99.71
2000;BME280;1001;48.87406500;9.59633600;2023-03-13T04:47:20;94319.13;;;9.26;100.00
2000;BME280;1001;48.87406500;9.59633600;2023-03-13T04:49:46;94318.94;;;9.33;99.89
2000;BME280;1001;48.87406500;9.59633600;2023-03-13T04:52:13;94327.81;;;9.32;100.00
2000;BME280;1001;48.87406500;9.59633600;2023-03-13T04:54:39;94312.72;;;9.34;99.89
2000;BME280;1001;48.87406500;9.59633600;2023-03-13T04:57:06;94317.47;;;9.37;100.00
2000;BME280;1001;48.87406500;9.59633600;2023-03-13T04:59:32;94312.28;;;9.42;99.94
2000;BME280;1001;48.87406500;9.59633600;2023-03-13T05:02:00;94317.03;;;9.45;100.00
2000;BME280;1001;48.87406500;9.59633600;2023-03-13T05:04:27;94325.72;;;9.50;100.00
2000;BME280;1001;48.87406500;9.59633600;2023-03-13T05:06:54;94322.94;;;9.57;99.42
2000;BME280;1001;48.87406500;9.59633600;2023-03-13T05:09:20;94317.19;;;9.55;99.77
2000;BME280;1001;48.87406500;9.59633600;2023-03-13T05:11:47;94321.34;;;9.56;99.56
2000;BME280;1001;48.87406500;9.59633600;2023-03-13T05:14:14;94315.25;;;9.67;99.68
2000;BME280;1001;48.87406500;9.59633600;2023-03-13T05:16:41;94311.31;;;9.65;100.00
2000;BME280;1001;48.87406500;9.59633600;2023-03-13T05:19:09;94307.50;;;9.72;100.00
2000;BME280;1001;48.87406500;9.59633600;2023-03-13T05:21:35;94306.22;;;9.75;100.00
2000;BME280;1001;48.87406500;9.59633600;2023-03-13T05:24:02;94303.59;;;9.75;100.00
2000;BME280;1001;48.87406500;9.59633600;2023-03-13T05:26:28;94313.31;;;9.79;100.00
2000;BME280;1001;48.87406500;9.59633600;2023-03-13T05:28:55;94307.03;;;9.80;100.00
2000;BME280;1001;48.87406500;9.59633600;2023-03-13T05:31:21;94310.94;;;9.78;100.00
2000;BME280;1001;48.87406500;9.59633600;2023-03-13T05:33:48;94313.84;;;9.81;100.00
2000;BME280;1001;48.87406500;9.59633600;2023-03-13T05:36:16;94302.44;;;9.87;100.00
2000;BME280;1001;48.87406500;9.59633600;2023-03-13T05:38:43;94305.66;;;9.94;100.00
2000;BME280;1001;48.87406500;9.59633600;2023-03-13T05:41:09;94297.34;;;9.97;100.00
2000;BME280;1001;48.87406500;9.59633600;2023-03-13T05:43:36;94294.31;;;10.05;100.00
2000;BME280;1001;48.87406500;9.59633600;2023-03-13T05:46:02;94300.19;;;10.17;100.00
2000;BME280;1001;48.87406500;9.59633600;2023-03-13T05:48:29;94291.81;;;10.15;100.00
2000;BME280;1001;48.87406500;9.59633600;2023-03-13T05:50:56;94312.28;;;10.23;100.00
2000;BME280;1001;48.87406500;9.59633600;2023-03-13T05:53:23;94290.31;;;10.19;100.00
2000;BME280;1001;48.87406500;9.59633600;2023-03-13T05:55:50;94304.97;;;10.25;100.00
2000;BME280;1001;48.87406500;9.59633600;2023-03-13T05:58:17;94296.94;;;10.32;100.00
2000;BME280;1001;48.87406500;9.59633600;2023-03-13T06:00:43;94315.53;;;10.36;100.00
2000;BME280;1001;48.87406500;9.59633600;2023-03-13T06:03:10;94311.66;;;10.38;100.00
2000;BME280;1001;48.87406500;9.59633600;2023-03-13T06:05:36;94294.16;;;10.39;100.00
2000;BME280;1001;48.87406500;9.59633600;2023-03-13T06:08:03;94300.06;;;10.29;100.00
2000;BME280;1001;48.87406500;9.59633600;2023-03-13T06:10:31;94305.78;;;10.26;100.00
2000;BME280;1001;48.87406500;9.59633600;2023-03-13T06:12:58;94302.41;;;10.31;100.00
2000;BME280;1001;48.87406500;9.59633600;2023-03-13T06:15:24;94304.97;;;10.25;100.00
2000;BME280;1001;48.87406500;9.59633600;2023-03-13T06:17:51;94299.16;;;10.18;100.00
2000;BME280;1001;48.87406500;9.59633600;2023-03-13T06:20:17;94301.41;;;10.32;100.00
2000;BME280;1001;48.87406500;9.59633600;2023-03-13T06:22:44;94288.28;;;10.27;100.00
2000;BME280;1001;48.87406500;9.59633600;2023-03-13T06:25:11;94291.19;;;10.30;100.00
2000;BME280;1001;48.87406500;9.59633600;2023-03-13T06:27:39;94312.13;;;10.35;100.00
2000;BME280;1001;48.87406500;9.59633600;2023-03-13T06:30:08;94309.38;;;10.47;100.00
2000;BME280;1001;48.87406500;9.59633600;2023-03-13T06:32:35;94300.78;;;10.51;100.00
2000;BME280;1001;48.87406500;9.59633600;2023-03-13T06:35:02;94311.50;;;10.50;100.00
2000;BME280;1001;48.87406500;9.59633600;2023-03-13T06:37:29;94305.53;;;10.54;100.00
2000;BME280;1001;48.87406500;9.59633600;2023-03-13T06:39:56;94304.28;;;10.62;100.00
2000;BME280;1001;48.87406500;9.59633600;2023-03-13T06:42:22;94303.00;;;10.64;100.00
2000;BME280;1001;48.87406500;9.59633600;2023-03-13T06:44:50;94284.53;;;10.76;100.00
2000;BME280;1001;48.87406500;9.59633600;2023-03-13T06:47:17;94296.06;;;10.80;99.33
2000;BME280;1001;48.87406500;9.59633600;2023-03-13T06:49:43;94285.69;;;10.90;99.30
2000;BME280;1001;48.87406500;9.59633600;2023-03-13T06:52:10;94298.28;;;10.93;98.82
2000;BME280;1001;48.87406500;9.59633600;2023-03-13T06:54:36;94298.03;;;10.94;98.91
2000;BME280;1001;48.87406500;9.59633600;2023-03-13T06:57:03;94306.19;;;11.03;98.66
2000;BME280;1001;48.87406500;9.59633600;2023-03-13T06:59:29;94302.56;;;11.04;98.45
2000;BME280;1001;48.87406500;9.59633600;2023-03-13T07:01:57;94315.91;;;11.08;98.22
2000;BME280;1001;48.87406500;9.59633600;2023-03-13T07:04:24;94310.34;;;10.99;98.35
2000;BME280;1001;48.87406500;9.59633600;2023-03-13T07:06:51;94306.47;;;11.02;98.29
2000;BME280;1001;48.87406500;9.59633600;2023-03-13T07:09:17;94312.72;;;11.01;98.11
2000;BME280;1001;48.87406500;9.59633600;2023-03-13T07:11:45;94313.25;;;11.03;98.04
2000;BME280;1001;48.87406500;9.59633600;2023-03-13T07:14:12;94316.91;;;11.02;97.81
2000;BME280;1001;48.87406500;9.59633600;2023-03-13T07:16:38;94318.47;;;11.03;98.15
2000;BME280;1001;48.87406500;9.59633600;2023-03-13T07:19:06;94328.50;;;11.11;97.84
2000;BME280;1001;48.87406500;9.59633600;2023-03-13T07:21:33;94331.59;;;11.08;97.80
2000;BME280;1001;48.87406500;9.59633600;2023-03-13T07:23:59;94313.88;;;11.15;97.76
2000;BME280;1001;48.87406500;9.59633600;2023-03-13T07:26:26;94331.91;;;11.11;97.98
2000;BME280;1001;48.87406500;9.59633600;2023-03-13T07:28:52;94326.41;;;11.13;97.94
2000;BME280;1001;48.87406500;9.59633600;2023-03-13T07:31:20;94320.97;;;11.19;97.66
2000;BME280;1001;48.87406500;9.59633600;2023-03-13T07:33:48;94337.44;;;11.20;98.26
2000;BME280;1001;48.87406500;9.59633600;2023-03-13T07:36:18;94342.19;;;11.23;98.20
2000;BME280;1001;48.87406500;9.59633600;2023-03-13T07:38:46;94344.38;;;11.36;98.03
2000;BME280;1001;48.87406500;9.59633600;2023-03-13T07:41:13;94341.22;;;11.34;98.54
2000;BME280;1001;48.87406500;9.59633600;2023-03-13T07:43:40;94324.00;;;11.38;98.48
2000;BME280;1001;48.87406500;9.59633600;2023-03-13T07:46:09;94326.56;;;11.33;98.79
2000;BME280;1001;48.87406500;9.59633600;2023-03-13T07:48:37;94328.88;;;11.29;98.98
2000;BME280;1001;48.87406500;9.59633600;2023-03-13T07:51:05;94334.47;;;11.38;98.88
2000;BME280;1001;48.87406500;9.59633600;2023-03-13T07:53:34;94320.00;;;11.30;99.58
2000;BME280;1001;48.87406500;9.59633600;2023-03-13T07:56:02;94326.84;;;11.36;99.73
2000;BME280;1001;48.87406500;9.59633600;2023-03-13T07:58:30;94324.97;;;11.32;99.85
2000;BME280;1001;48.87406500;9.59633600;2023-03-13T08:00:57;94322.94;;;11.39;99.97
2000;BME280;1001;48.87406500;9.59633600;2023-03-13T08:03:24;94316.91;;;11.38;100.00
2000;BME280;1001;48.87406500;9.59633600;2023-03-13T08:05:58;94319.03;;;11.41;100.00
2000;BME280;1001;48.87406500;9.59633600;2023-03-13T08:08:24;94301.47;;;11.37;100.00
2000;BME280;1001;48.87406500;9.59633600;2023-03-13T08:10:52;94305.97;;;11.46;99.99
2000;BME280;1001;48.87406500;9.59633600;2023-03-13T08:13:19;94309.91;;;11.49;100.00
2000;BME280;1001;48.87406500;9.59633600;2023-03-13T08:15:45;94291.56;;;11.44;100.00
2000;BME280;1001;48.87406500;9.59633600;2023-03-13T08:18:12;94287.34;;;11.43;100.00
2000;BME280;1001;48.87406500;9.59633600;2023-03-13T08:20:39;94290.56;;;11.55;100.00
2000;BME280;1001;48.87406500;9.59633600;2023-03-13T08:23:05;94276.69;;;11.59;99.85
2000;BME280;1001;48.87406500;9.59633600;2023-03-13T08:25:32;94278.63;;;11.69;99.47
2000;BME280;1001;48.87406500;9.59633600;2023-03-13T08:28:00;94275.78;;;11.76;99.21
2000;BME280;1001;48.87406500;9.59633600;2023-03-13T08:30:26;94268.97;;;11.80;98.48
2000;BME280;1001;48.87406500;9.59633600;2023-03-13T08:32:53;94261.94;;;11.95;98.73
2000;BME280;1001;48.87406500;9.59633600;2023-03-13T08:35:19;94253.06;;;12.01;97.81
2000;BME280;1001;48.87406500;9.59633600;2023-03-13T08:37:46;94254.69;;;12.17;97.92
2000;BME280;1001;48.87406500;9.59633600;2023-03-13T08:40:13;94252.66;;;12.40;96.36
2000;BME280;1001;48.87406500;9.59633600;2023-03-13T08:42:39;94250.00;;;12.50;95.87
2000;BME280;1001;48.87406500;9.59633600;2023-03-13T08:45:08;94260.53;;;12.65;95.32
2000;BME280;1001;48.87406500;9.59633600;2023-03-13T08:47:35;94254.25;;;12.66;94.49
2000;BME280;1001;48.87406500;9.59633600;2023-03-13T08:50:02;94260.28;;;13.07;94.76
2000;BME280;1001;48.87406500;9.59633600;2023-03-13T08:52:29;94264.44;;;13.23;93.25
2000;BME280;1001;48.87406500;9.59633600;2023-03-13T08:54:55;94266.25;;;13.42;92.63
2000;BME280;1001;48.87406500;9.59633600;2023-03-13T08:57:22;94259.91;;;13.63;90.68
2000;BME280;1001;48.87406500;9.59633600;2023-03-13T08:59:49;94266.97;;;13.73;90.87
2000;BME280;1001;48.87406500;9.59633600;2023-03-13T09:02:17;94261.69;;;13.83;88.61
2000;BME280;1001;48.87406500;9.59633600;2023-03-13T09:04:46;94242.78;;;13.81;88.51
2000;BME280;1001;48.87406500;9.59633600;2023-03-13T09:07:13;94267.75;;;13.74;89.32
2000;BME280;1001;48.87406500;9.59633600;2023-03-13T09:09:41;94263.09;;;13.55;89.37
2000;BME280;1001;48.87406500;9.59633600;2023-03-13T09:12:08;94277.03;;;13.46;89.64
2000;BME280;1001;48.87406500;9.59633600;2023-03-13T09:14:35;94266.53;;;13.36;90.35
2000;BME280;1001;48.87406500;9.59633600;2023-03-13T09:17:01;94271.00;;;13.25;91.04
2000;BME280;1001;48.87406500;9.59633600;2023-03-13T09:19:30;94261.59;;;13.24;91.32
2000;BME280;1001;48.87406500;9.59633600;2023-03-13T09:21:56;94260.28;;;13.27;91.06
2000;BME280;1001;48.87406500;9.59633600;2023-03-13T09:24:23;94258.44;;;13.07;91.41
2000;BME280;1001;48.87406500;9.59633600;2023-03-13T09:26:50;94261.59;;;13.14;91.47
2000;BME280;1001;48.87406500;9.59633600;2023-03-13T09:29:16;94257.94;;;13.10;91.27
2000;BME280;1001;48.87406500;9.59633600;2023-03-13T09:31:43;94269.22;;;13.06;90.86
2000;BME280;1001;48.87406500;9.59633600;2023-03-13T09:34:09;94257.13;;;13.20;91.11
2000;BME280;1001;48.87406500;9.59633600;2023-03-13T09:36:37;94252.91;;;13.24;90.85
2000;BME280;1001;48.87406500;9.59633600;2023-03-13T09:39:04;94247.66;;;13.19;90.48
2000;BME280;1001;48.87406500;9.59633600;2023-03-13T09:41:34;94257.13;;;13.25;90.38
2000;BME280;1001;48.87406500;9.59633600;2023-03-13T09:44:08;94251.56;;;13.41;89.72
2000;BME280;1001;48.87406500;9.59633600;2023-03-13T09:46:40;94252.88;;;13.44;89.36
2000;BME280;1001;48.87406500;9.59633600;2023-03-13T09:49:14;94260.22;;;13.42;89.25
2000;BME280;1001;48.87406500;9.59633600;2023-03-13T09:51:47;94256.81;;;13.41;88.84
2000;BME280;1001;48.87406500;9.59633600;2023-03-13T09:54:22;94267.59;;;13.40;89.02
2000;BME280;1001;48.87406500;9.59633600;2023-03-13T09:56:54;94267.06;;;13.38;88.69
2000;BME280;1001;48.87406500;9.59633600;2023-03-13T09:59:28;94272.59;;;13.36;89.05
2000;BME280;1001;48.87406500;9.59633600;2023-03-13T10:01:57;94267.06;;;13.28;89.17
2000;BME280;1001;48.87406500;9.59633600;2023-03-13T10:04:33;94265.47;;;13.37;89.29
2000;BME280;1001;48.87406500;9.59633600;2023-03-13T10:07:02;94257.56;;;13.52;89.93
2000;BME280;1001;48.87406500;9.59633600;2023-03-13T10:09:30;94264.94;;;13.55;88.21
2000;BME280;1001;48.87406500;9.59633600;2023-03-13T10:12:04;94283.03;;;13.67;88.80
2000;BME280;1001;48.87406500;9.59633600;2023-03-13T10:14:40;94265.34;;;13.82;87.48
2000;BME280;1001;48.87406500;9.59633600;2023-03-13T10:17:14;94256.06;;;14.10;86.00
2000;BME280;1001;48.87406500;9.59633600;2023-03-13T10:19:42;94256.22;;;14.34;84.51
2000;BME280;1001;48.87406500;9.59633600;2023-03-13T10:22:15;94245.59;;;14.44;83.92
2000;BME280;1001;48.87406500;9.59633600;2023-03-13T10:24:46;94250.78;;;14.59;84.22
2000;BME280;1001;48.87406500;9.59633600;2023-03-13T10:27:14;94222.06;;;14.23;83.37
2000;BME280;1001;48.87406500;9.59633600;2023-03-13T10:29:41;94230.44;;;14.25;84.09
2000;BME280;1001;48.87406500;9.59633600;2023-03-13T10:32:12;94229.84;;;14.39;84.52
2000;BME280;1001;48.87406500;9.59633600;2023-03-13T10:34:58;94223.53;;;14.78;83.31
2000;BME280;1001;48.87406500;9.59633600;2023-03-13T10:37:28;94220.47;;;15.00;81.55
2000;BME280;1001;48.87406500;9.59633600;2023-03-13T10:40:10;94216.25;;;14.99;80.84
2000;BME280;1001;48.87406500;9.59633600;2023-03-13T10:42:42;94216.94;;;14.81;81.12
2000;BME280;1001;48.87406500;9.59633600;2023-03-13T10:45:14;94200.44;;;14.70;82.23
2000;BME280;1001;48.87406500;9.59633600;2023-03-13T10:47:41;94199.97;;;14.63;80.51
2000;BME280;1001;48.87406500;9.59633600;2023-03-13T10:50:17;94196.59;;;14.86;81.28
2000;BME280;1001;48.87406500;9.59633600;2023-03-13T10:52:47;94196.28;;;14.93;80.76
2000;BME280;1001;48.87406500;9.59633600;2023-03-13T10:55:17;94195.09;;;15.09;80.65
2000;BME280;1001;48.87406500;9.59633600;2023-03-13T10:57:53;94201.97;;;15.05;80.40
2000;BME280;1001;48.87406500;9.59633600;2023-03-13T11:00:28;94184.31;;;15.06;79.15
2000;BME280;1001;48.87406500;9.59633600;2023-03-13T11:02:55;94185.72;;;15.22;79.00
2000;BME280;1001;48.87406500;9.59633600;2023-03-13T11:05:30;94171.84;;;15.16;78.87
2000;BME280;1001;48.87406500;9.59633600;2023-03-13T11:08:10;94176.84;;;15.41;78.19
2000;BME280;1001;48.87406500;9.59633600;2023-03-13T11:10:50;94176.69;;;15.56;78.21
2000;BME280;1001;48.87406500;9.59633600;2023-03-13T11:13:27;94168.13;;;15.46;76.49
2000;BME280;1001;48.87406500;9.59633600;2023-03-13T11:15:56;94174.69;;;15.91;78.38
2000;BME280;1001;48.87406500;9.59633600;2023-03-13T11:18:29;94161.84;;;16.21;75.12
2000;BME280;1001;48.87406500;9.59633600;2023-03-13T11:21:03;94165.59;;;16.71;74.55
2000;BME280;1001;48.87406500;9.59633600;2023-03-13T11:23:34;94180.31;;;16.91;73.60
2000;BME280;1001;48.87406500;9.59633600;2023-03-13T11:26:09;94176.31;;;16.80;71.66
2000;BME280;1001;48.87406500;9.59633600;2023-03-13T11:28:47;94164.66;;;16.81;72.18
2000;BME280;1001;48.87406500;9.59633600;2023-03-13T11:31:18;94169.41;;;16.47;71.09
2000;BME280;1001;48.87406500;9.59633600;2023-03-13T11:33:50;94156.47;;;16.45;73.22
2000;BME280;1001;48.87406500;9.59633600;2023-03-13T11:36:25;94161.75;;;16.45;73.29
2000;BME280;1001;48.87406500;9.59633600;2023-03-13T11:39:02;94141.50;;;16.59;70.27
2000;BME280;1001;48.87406500;9.59633600;2023-03-13T11:41:44;94148.47;;;16.69;72.60
2000;BME280;1001;48.87406500;9.59633600;2023-03-13T11:44:45;94150.25;;;16.73;71.35
2000;BME280;1001;48.87406500;9.59633600;2023-03-13T11:47:26;94142.63;;;16.72;72.32
2000;BME280;1001;48.87406500;9.59633600;2023-03-13T11:50:01;94139.66;;;17.19;72.60
2000;BME280;1001;48.87406500;9.59633600;2023-03-13T11:52:39;94127.44;;;16.96;69.19